KDRA/DRA METAR and TAF weather

Enter ICAO airport designator
Station Type Date Time Source
KDRA METAR 2018/12/10 16:56 UTC NOAA

KDRA 101656Z AUTO 08012KT 10SM CLR 08/M02 A3021 RMK AO2 SLP217 T00781022


Station Type Date Time Source
KDRA Decoded METAR 2018/12/10 16:56 UTC NOAA

DESERT ROCK AIRPORT, NV, United States (KDRA) 36-38N 116-02W 1006M
Dec 10, 2018 - 11:56 AM EST / 2018.12.10 1656 UTC
Wind: from the E (080 degrees) at 14 MPH (12 KT):0
Visibility: 10 mile(s):0
Sky conditions: clear
Temperature: 46.0 F (7.8 C)
Dew Point: 28.0 F (-2.2 C)
Relative Humidity: 49%
Pressure (altimeter): 30.21 in. Hg (1023 hPa)
ob: KDRA 101656Z AUTO 08012KT 10SM CLR 08/M02 A3021 RMK AO2 SLP217 T00781022
cycle: 17

Station Type Date Time Source
KDRA TAF 2011/12/07 06:36 UTC NOAA

TAF KDRA 070532Z 0706/0806 VRB04KT P6SM SKC


Example: see airport list